No particular awareness of the weather is required.    There are no Weather-warnings


Meteo18 Weather Cam more information Meteo18 Weather Cam


Thunder radar more information blitzortung!


Rain radar more information rain snow radar


Visit our other weather sites:

Template documentation
and downloads

And another site



Weather Underground History page Text

Daily Summary for April 25, 2017 Units:  Both    English   Metric
« Previous Day
Next Day »
Daily Weekly Monthly Yearly Custom
  High: Low: Average:
Temperature: TemperatureC °F /  -17.8 °C 3.0 °F /  -16.1 °C 7.1 °F /  -13.8 °C
Dew Point: DewpointC °F /  -17.8 °C 2.0 °F /  -16.7 °C 4.1 °F /  -15.5 °C
Humidity: Humidity % 58 % 82 %
Wind Speed: WindSpeedKMH mph /  0 km/h - 6.4 mph /  10.3 km/h
Wind Gust: WindSpeedGustKMH mph /  0 km/h - -
Wind:- - SSW
Pressure: PressurehPa in /  0 hPa 1010.4 in /  34212.1 hPa -
Precipitation: 5.1 in /  129.54 mm    
Historical Graphs
 
 
Tabular Data for April 25, 2017
Time Temperature Dew Point Pressure Wind Wind Speed Wind Gust Humidity Rainfall Rate (Hourly)
TemperatureC °F /  -17.8 °C DewpointC °F /  -17.8 °C PressurehPa in /  0 hPa Calm     Humidity % HourlyPrecipMM in /  0 mm
00:02 10.8 °F /  -11.8 °C 2.9 °F /  -16.2 °C 1012.4 in /  34279.9 hPa NW 1.6 mph /  2.6 km/h 4.8 mph /  7.7 km/h 58 % 0.0 in /  0 mm
00:12 10.6 °F /  -11.9 °C 2.9 °F /  -16.2 °C 1012.1 in /  34269.7 hPa NW 4.8 mph /  7.7 km/h 4.8 mph /  7.7 km/h 59 % 0.0 in /  0 mm
00:17 10.6 °F /  -11.9 °C 2.9 °F /  -16.2 °C 1012.1 in /  34269.7 hPa NW 3.2 mph /  5.1 km/h 4.8 mph /  7.7 km/h 59 % 0.0 in /  0 mm
00:22 10.7 °F /  -11.8 °C 2.8 °F /  -16.2 °C 1012.1 in /  34269.7 hPa NW 1.6 mph /  2.6 km/h 4.8 mph /  7.7 km/h 58 % 0.0 in /  0 mm
00:32 10.6 °F /  -11.9 °C 2.7 °F /  -16.3 °C 1012.1 in /  34269.7 hPa NW 3.2 mph /  5.1 km/h 4.8 mph /  7.7 km/h 58 % 0.0 in /  0 mm
00:37 10.6 °F /  -11.9 °C 2.7 °F /  -16.3 °C 1012.1 in /  34269.7 hPa NW 3.2 mph /  5.1 km/h 4.8 mph /  7.7 km/h 58 % 0.0 in /  0 mm
00:42 10.5 °F /  -11.9 °C 2.8 °F /  -16.2 °C 1012.1 in /  34269.7 hPa Calm   6.4 mph /  10.3 km/h 59 % 0.0 in /  0 mm
00:47 10.4 °F /  -12 °C 2.7 °F /  -16.3 °C 1012.1 in /  34269.7 hPa NNW 4.8 mph /  7.7 km/h 6.4 mph /  10.3 km/h 59 % 0.0 in /  0 mm
00:52 10.3 °F /  -12.1 °C 2.6 °F /  -16.3 °C 1012.1 in /  34269.7 hPa NW 3.2 mph /  5.1 km/h 4.8 mph /  7.7 km/h 59 % 0.0 in /  0 mm
00:57 10.3 °F /  -12.1 °C 2.9 °F /  -16.2 °C 1012.1 in /  34269.7 hPa NW 3.2 mph /  5.1 km/h 4.8 mph /  7.7 km/h 60 % 0.0 in /  0 mm
01:02 10.2 °F /  -12.1 °C 2.8 °F /  -16.2 °C 1012.1 in /  34269.7 hPa NW 1.6 mph /  2.6 km/h 4.8 mph /  7.7 km/h 60 % 0.0 in /  0 mm
01:07 10.1 °F /  -12.2 °C 2.7 °F /  -16.3 °C 1012.1 in /  34269.7 hPa NW 1.6 mph /  2.6 km/h 6.4 mph /  10.3 km/h 60 % 0.0 in /  0 mm
01:12 10.1 °F /  -12.2 °C 2.9 °F /  -16.2 °C 1012.1 in /  34269.7 hPa NW 4.8 mph /  7.7 km/h 6.4 mph /  10.3 km/h 61 % 0.0 in /  0 mm
01:17 9.9 °F /  -12.3 °C 2.7 °F /  -16.3 °C 1012.1 in /  34269.7 hPa NW 3.2 mph /  5.1 km/h 6.4 mph /  10.3 km/h 61 % 0.0 in /  0 mm
01:22 9.8 °F /  -12.3 °C 2.6 °F /  -16.3 °C 1012.1 in /  34269.7 hPa NNW 4.8 mph /  7.7 km/h 6.4 mph /  10.3 km/h 61 % 0.0 in /  0 mm
01:32 9.6 °F /  -12.4 °C 2.9 °F /  -16.2 °C 1012.1 in /  34269.7 hPa NNW 6.4 mph /  10.3 km/h 6.4 mph /  10.3 km/h 63 % 0.0 in /  0 mm
01:42 9.1 °F /  -12.7 °C 3.1 °F /  -16.1 °C 1012.1 in /  34269.7 hPa NNW 3.2 mph /  5.1 km/h 8.0 mph /  12.9 km/h 66 % 0.0 in /  0 mm
01:47 9.1 °F /  -12.7 °C 3.1 °F /  -16.1 °C 1012.1 in /  34269.7 hPa NNW 4.8 mph /  7.7 km/h 8.0 mph /  12.9 km/h 66 % 0.0 in /  0 mm
01:52 9.1 °F /  -12.7 °C 3.3 °F /  -15.9 °C 1012.1 in /  34269.7 hPa North 4.8 mph /  7.7 km/h 8.0 mph /  12.9 km/h 67 % 0.0 in /  0 mm
01:57 8.9 °F /  -12.8 °C 3.1 °F /  -16.1 °C 1012.1 in /  34269.7 hPa NW 3.2 mph /  5.1 km/h 9.7 mph /  15.6 km/h 67 % 0.0 in /  0 mm
02:02 9.1 °F /  -12.7 °C 3.5 °F /  -15.8 °C 1012.1 in /  34269.7 hPa NW 4.8 mph /  7.7 km/h 9.7 mph /  15.6 km/h 68 % 0.0 in /  0 mm
02:07 9.1 °F /  -12.7 °C 3.3 °F /  -15.9 °C 1012.1 in /  34269.7 hPa NW 4.8 mph /  7.7 km/h 8.0 mph /  12.9 km/h 67 % 0.0 in /  0 mm
02:12 9.1 °F /  -12.7 °C 3.5 °F /  -15.8 °C 1012.1 in /  34269.7 hPa NW 4.8 mph /  7.7 km/h 8.0 mph /  12.9 km/h 68 % 0.0 in /  0 mm
02:17 9.1 °F /  -12.7 °C 3.5 °F /  -15.8 °C 1012.1 in /  34269.7 hPa NNW 1.6 mph /  2.6 km/h 8.0 mph /  12.9 km/h 68 % 0.0 in /  0 mm
02:22 8.7 °F /  -12.9 °C 3.3 °F /  -15.9 °C 1011.7 in /  34256.2 hPa NNE 3.2 mph /  5.1 km/h 8.0 mph /  12.9 km/h 69 % 0.0 in /  0 mm
02:27 8.7 °F /  -12.9 °C 3.5 °F /  -15.8 °C 1011.7 in /  34256.2 hPa NNW 3.2 mph /  5.1 km/h 8.0 mph /  12.9 km/h 70 % 0.0 in /  0 mm
02:32 8.8 °F /  -12.9 °C 3.6 °F /  -15.8 °C 1011.7 in /  34256.2 hPa NNW 1.6 mph /  2.6 km/h 8.0 mph /  12.9 km/h 70 % 0.0 in /  0 mm
02:37 8.7 °F /  -12.9 °C 3.5 °F /  -15.8 °C 1011.7 in /  34256.2 hPa NNW 4.8 mph /  7.7 km/h 6.4 mph /  10.3 km/h 70 % 0.0 in /  0 mm
02:42 8.6 °F /  -13 °C 3.4 °F /  -15.9 °C 1011.7 in /  34256.2 hPa NW 3.2 mph /  5.1 km/h 6.4 mph /  10.3 km/h 70 % 0.0 in /  0 mm
02:47 8.5 °F /  -13.1 °C 3.5 °F /  -15.8 °C 1011.7 in /  34256.2 hPa NW 3.2 mph /  5.1 km/h 6.4 mph /  10.3 km/h 71 % 0.0 in /  0 mm
02:52 8.4 °F /  -13.1 °C 3.6 °F /  -15.8 °C 1011.7 in /  34256.2 hPa NW 1.6 mph /  2.6 km/h 6.4 mph /  10.3 km/h 72 % 0.0 in /  0 mm
02:57 8.4 °F /  -13.1 °C 3.6 °F /  -15.8 °C 1011.7 in /  34256.2 hPa Calm   4.8 mph /  7.7 km/h 72 % 0.0 in /  0 mm
03:02 8.3 °F /  -13.2 °C 3.5 °F /  -15.8 °C 1011.7 in /  34256.2 hPa NW 3.2 mph /  5.1 km/h 4.8 mph /  7.7 km/h 72 % 0.0 in /  0 mm
03:07 8.3 °F /  -13.2 °C 3.7 °F /  -15.7 °C 1011.7 in /  34256.2 hPa North 1.6 mph /  2.6 km/h 4.8 mph /  7.7 km/h 73 % 0.0 in /  0 mm
03:12 8.2 °F /  -13.2 °C 3.6 °F /  -15.8 °C 1011.7 in /  34256.2 hPa NW 1.6 mph /  2.6 km/h 4.8 mph /  7.7 km/h 73 % 0.0 in /  0 mm
03:17 8.2 °F /  -13.2 °C 3.6 °F /  -15.8 °C 1011.7 in /  34256.2 hPa NNW 3.2 mph /  5.1 km/h 6.4 mph /  10.3 km/h 73 % 0.0 in /  0 mm
03:22 8.2 °F /  -13.2 °C 3.8 °F /  -15.7 °C 1011.7 in /  34256.2 hPa North 4.8 mph /  7.7 km/h 6.4 mph /  10.3 km/h 74 % 0.0 in /  0 mm
03:32 8.1 °F /  -13.3 °C 3.7 °F /  -15.7 °C 1011.4 in /  34246 hPa WNW 1.6 mph /  2.6 km/h 6.4 mph /  10.3 km/h 74 % 0.0 in /  0 mm
03:37 7.9 °F /  -13.4 °C 3.6 °F /  -15.8 °C 1011.4 in /  34246 hPa WNW 3.2 mph /  5.1 km/h 8.0 mph /  12.9 km/h 74 % 0.0 in /  0 mm
03:42 7.8 °F /  -13.4 °C 3.6 °F /  -15.8 °C 1011.4 in /  34246 hPa NW 1.6 mph /  2.6 km/h 8.0 mph /  12.9 km/h 75 % 0.0 in /  0 mm
03:47 7.6 °F /  -13.6 °C 3.5 °F /  -15.8 °C 1011.4 in /  34246 hPa WNW 4.8 mph /  7.7 km/h 6.4 mph /  10.3 km/h 75 % 0.0 in /  0 mm
03:52 7.6 °F /  -13.6 °C 3.5 °F /  -15.8 °C 1011.4 in /  34246 hPa NW 4.8 mph /  7.7 km/h 6.4 mph /  10.3 km/h 75 % 0.0 in /  0 mm
04:02 7.7 °F /  -13.5 °C 3.7 °F /  -15.7 °C 1011.4 in /  34246 hPa NNW 1.6 mph /  2.6 km/h 6.4 mph /  10.3 km/h 76 % 0.0 in /  0 mm
04:12 7.6 °F /  -13.6 °C 3.6 °F /  -15.8 °C 1011.4 in /  34246 hPa WNW 1.6 mph /  2.6 km/h 8.0 mph /  12.9 km/h 76 % 0.0 in /  0 mm
04:17 7.6 °F /  -13.6 °C 3.6 °F /  -15.8 °C 1011.4 in /  34246 hPa NW 3.2 mph /  5.1 km/h 6.4 mph /  10.3 km/h 76 % 0.0 in /  0 mm
04:22 7.5 °F /  -13.6 °C 3.5 °F /  -15.8 °C 1011.4 in /  34246 hPa WNW 1.6 mph /  2.6 km/h 6.4 mph /  10.3 km/h 76 % 0.0 in /  0 mm
04:32 7.3 °F /  -13.7 °C 3.5 °F /  -15.8 °C 1011.4 in /  34246 hPa NW 3.2 mph /  5.1 km/h 3.2 mph /  5.1 km/h 77 % 0.0 in /  0 mm
04:42 7.2 °F /  -13.8 °C 3.4 °F /  -15.9 °C 1011.4 in /  34246 hPa NNW 1.6 mph /  2.6 km/h 4.8 mph /  7.7 km/h 77 % 0.0 in /  0 mm
04:47 7.1 °F /  -13.8 °C 3.5 °F /  -15.8 °C 1011.4 in /  34246 hPa NNW 1.6 mph /  2.6 km/h 3.2 mph /  5.1 km/h 78 % 0.0 in /  0 mm
04:57 7.1 °F /  -13.8 °C 3.5 °F /  -15.8 °C 1011.4 in /  34246 hPa NW 1.6 mph /  2.6 km/h 3.2 mph /  5.1 km/h 78 % 0.0 in /  0 mm
05:02 7.2 °F /  -13.8 °C 3.6 °F /  -15.8 °C 1011.4 in /  34246 hPa NW 1.6 mph /  2.6 km/h 3.2 mph /  5.1 km/h 78 % 0.0 in /  0 mm
05:12 7.1 °F /  -13.8 °C 3.5 °F /  -15.8 °C 1011.4 in /  34246 hPa NW 3.2 mph /  5.1 km/h 4.8 mph /  7.7 km/h 78 % 0.0 in /  0 mm
05:17 7.1 °F /  -13.8 °C 3.5 °F /  -15.8 °C 1011.1 in /  34235.8 hPa NNW 3.2 mph /  5.1 km/h 4.8 mph /  7.7 km/h 78 % 0.0 in /  0 mm
05:22 7.1 °F /  -13.8 °C 3.5 °F /  -15.8 °C 1011.1 in /  34235.8 hPa NW 1.6 mph /  2.6 km/h 4.8 mph /  7.7 km/h 78 % 0.0 in /  0 mm
05:32 7.0 °F /  -13.9 °C 3.6 °F /  -15.8 °C 1011.1 in /  34235.8 hPa NW 1.6 mph /  2.6 km/h 6.4 mph /  10.3 km/h 79 % 0.0 in /  0 mm
05:42 7.0 °F /  -13.9 °C 3.6 °F /  -15.8 °C 1011.1 in /  34235.8 hPa NNW 1.6 mph /  2.6 km/h 6.4 mph /  10.3 km/h 79 % 0.0 in /  0 mm
05:47 6.9 °F /  -13.9 °C 3.5 °F /  -15.8 °C 1011.1 in /  34235.8 hPa NW 1.6 mph /  2.6 km/h 4.8 mph /  7.7 km/h 79 % 0.0 in /  0 mm
05:52 7.0 °F /  -13.9 °C 3.6 °F /  -15.8 °C 1011.1 in /  34235.8 hPa NW 1.6 mph /  2.6 km/h 4.8 mph /  7.7 km/h 79 % 0.0 in /  0 mm
06:02 7.0 °F /  -13.9 °C 3.6 °F /  -15.8 °C 1011.1 in /  34235.8 hPa Calm   6.4 mph /  10.3 km/h 79 % 0.0 in /  0 mm
06:12 6.9 °F /  -13.9 °C 3.5 °F /  -15.8 °C 1011.1 in /  34235.8 hPa Calm   4.8 mph /  7.7 km/h 79 % 0.0 in /  0 mm
06:17 6.8 °F /  -14 °C 3.4 °F /  -15.9 °C 1011.1 in /  34235.8 hPa Calm   3.2 mph /  5.1 km/h 79 % 0.0 in /  0 mm
06:22 6.6 °F /  -14.1 °C 3.2 °F /  -16 °C 1011.1 in /  34235.8 hPa Calm   3.2 mph /  5.1 km/h 79 % 0.0 in /  0 mm
06:32 6.4 °F /  -14.2 °C 3.4 °F /  -15.9 °C 1011.1 in /  34235.8 hPa Calm   1.6 mph /  2.6 km/h 81 % 0.0 in /  0 mm
06:42 6.7 °F /  -14.1 °C 3.5 °F /  -15.8 °C 1011.1 in /  34235.8 hPa NW 3.2 mph /  5.1 km/h 4.8 mph /  7.7 km/h 80 % 0.0 in /  0 mm
06:52 6.7 °F /  -14.1 °C 3.5 °F /  -15.8 °C 1011.1 in /  34235.8 hPa NW 3.2 mph /  5.1 km/h 6.4 mph /  10.3 km/h 80 % 0.0 in /  0 mm
07:02 6.7 °F /  -14.1 °C 3.5 °F /  -15.8 °C 1011.1 in /  34235.8 hPa NW 1.6 mph /  2.6 km/h 6.4 mph /  10.3 km/h 80 % 0.0 in /  0 mm
07:12 6.9 °F /  -13.9 °C 3.7 °F /  -15.7 °C 1011.1 in /  34235.8 hPa Calm   6.4 mph /  10.3 km/h 80 % 0.0 in /  0 mm
07:17 7.1 °F /  -13.8 °C 3.9 °F /  -15.6 °C 1011.1 in /  34235.8 hPa NW 3.2 mph /  5.1 km/h 4.8 mph /  7.7 km/h 80 % 0.0 in /  0 mm
07:22 7.2 °F /  -13.8 °C 3.8 °F /  -15.7 °C 1011.1 in /  34235.8 hPa NW 3.2 mph /  5.1 km/h 4.8 mph /  7.7 km/h 79 % 0.0 in /  0 mm
07:32 7.1 °F /  -13.8 °C 3.7 °F /  -15.7 °C 1011.1 in /  34235.8 hPa NW 3.2 mph /  5.1 km/h 6.4 mph /  10.3 km/h 79 % 0.0 in /  0 mm
07:42 7.4 °F /  -13.7 °C 4.0 °F /  -15.6 °C 1011.1 in /  34235.8 hPa NW 3.2 mph /  5.1 km/h 6.4 mph /  10.3 km/h 79 % 0.0 in /  0 mm
07:47 7.6 °F /  -13.6 °C 4.0 °F /  -15.6 °C 1011.1 in /  34235.8 hPa NW 1.6 mph /  2.6 km/h 4.8 mph /  7.7 km/h 78 % 0.0 in /  0 mm
07:52 7.8 °F /  -13.4 °C 4.2 °F /  -15.4 °C 1011.1 in /  34235.8 hPa NW 1.6 mph /  2.6 km/h 4.8 mph /  7.7 km/h 78 % 0.0 in /  0 mm
07:57 8.0 °F /  -13.3 °C 4.4 °F /  -15.3 °C 1011.1 in /  34235.8 hPa WNW 1.6 mph /  2.6 km/h 6.4 mph /  10.3 km/h 78 % 0.0 in /  0 mm
08:02 8.2 °F /  -13.2 °C 4.6 °F /  -15.2 °C 1011.1 in /  34235.8 hPa Calm   6.4 mph /  10.3 km/h 78 % 0.0 in /  0 mm
08:07 8.3 °F /  -13.2 °C 4.7 °F /  -15.2 °C 1011.1 in /  34235.8 hPa Calm   4.8 mph /  7.7 km/h 78 % 0.0 in /  0 mm
08:12 8.4 °F /  -13.1 °C 4.8 °F /  -15.1 °C 1011.1 in /  34235.8 hPa Calm   4.8 mph /  7.7 km/h 78 % 0.0 in /  0 mm
08:17 8.4 °F /  -13.1 °C 4.8 °F /  -15.1 °C 1011.1 in /  34235.8 hPa Calm   3.2 mph /  5.1 km/h 78 % 0.0 in /  0 mm
08:22 8.6 °F /  -13 °C 5.2 °F /  -14.9 °C 1011.1 in /  34235.8 hPa Calm   3.2 mph /  5.1 km/h 79 % 0.0 in /  0 mm
08:27 8.8 °F /  -12.9 °C 5.4 °F /  -14.8 °C 1011.1 in /  34235.8 hPa North 3.2 mph /  5.1 km/h 4.8 mph /  7.7 km/h 79 % 0.0 in /  0 mm
08:32 9.1 °F /  -12.7 °C 5.8 °F /  -14.6 °C 1011.1 in /  34235.8 hPa North 9.7 mph /  15.6 km/h 9.7 mph /  15.6 km/h 80 % 0.0 in /  0 mm
08:37 9.4 °F /  -12.6 °C 6.3 °F /  -14.3 °C 1011.1 in /  34235.8 hPa West 1.6 mph /  2.6 km/h 12.9 mph /  20.8 km/h 81 % 0.0 in /  0 mm
08:42 9.7 °F /  -12.4 °C 6.4 °F /  -14.2 °C 1011.1 in /  34235.8 hPa North 4.8 mph /  7.7 km/h 12.9 mph /  20.8 km/h 80 % 0.0 in /  0 mm
08:47 9.9 °F /  -12.3 °C 6.6 °F /  -14.1 °C 1011.1 in /  34235.8 hPa North 1.6 mph /  2.6 km/h 12.9 mph /  20.8 km/h 80 % 0.0 in /  0 mm
08:52 10.2 °F /  -12.1 °C 6.7 °F /  -14.1 °C 1011.1 in /  34235.8 hPa NNE 11.3 mph /  18.2 km/h 12.9 mph /  20.8 km/h 79 % 0.0 in /  0 mm
09:02 10.3 °F /  -12.1 °C 6.8 °F /  -14 °C 1011.1 in /  34235.8 hPa NNE 3.2 mph /  5.1 km/h 16.1 mph /  25.9 km/h 79 % 0.0 in /  0 mm
09:07 10.2 °F /  -12.1 °C 6.7 °F /  -14.1 °C 1011.1 in /  34235.8 hPa North 3.2 mph /  5.1 km/h 16.1 mph /  25.9 km/h 79 % 0.0 in /  0 mm
09:12 10.2 °F /  -12.1 °C 6.7 °F /  -14.1 °C 1011.1 in /  34235.8 hPa NW 8.0 mph /  12.9 km/h 16.1 mph /  25.9 km/h 79 % 0.0 in /  0 mm
09:17 10.2 °F /  -12.1 °C 6.7 °F /  -14.1 °C 1011.1 in /  34235.8 hPa NE 3.2 mph /  5.1 km/h 14.5 mph /  23.3 km/h 79 % 0.0 in /  0 mm
09:22 10.1 °F /  -12.2 °C 6.6 °F /  -14.1 °C 1011.1 in /  34235.8 hPa North 8.0 mph /  12.9 km/h 14.5 mph /  23.3 km/h 79 % 0.0 in /  0 mm
09:32 10.2 °F /  -12.1 °C 6.9 °F /  -13.9 °C 1011.1 in /  34235.8 hPa NNE 4.8 mph /  7.7 km/h 14.5 mph /  23.3 km/h 80 % 0.0 in /  0 mm
09:42 10.5 °F /  -11.9 °C 7.0 °F /  -13.9 °C 1011.4 in /  34246 hPa North 6.4 mph /  10.3 km/h 12.9 mph /  20.8 km/h 79 % 0.0 in /  0 mm
09:47 10.5 °F /  -11.9 °C 7.0 °F /  -13.9 °C 1011.1 in /  34235.8 hPa NW 3.2 mph /  5.1 km/h 16.1 mph /  25.9 km/h 79 % 0.0 in /  0 mm
09:52 10.7 °F /  -11.8 °C 7.2 °F /  -13.8 °C 1011.1 in /  34235.8 hPa ENE 6.4 mph /  10.3 km/h 16.1 mph /  25.9 km/h 79 % 0.0 in /  0 mm
09:57 10.8 °F /  -11.8 °C 7.3 °F /  -13.7 °C 1011.1 in /  34235.8 hPa WNW 1.6 mph /  2.6 km/h 9.7 mph /  15.6 km/h 79 % 0.0 in /  0 mm
10:02 11.0 °F /  -11.7 °C 7.3 °F /  -13.7 °C 1011.4 in /  34246 hPa NE 12.9 mph /  20.8 km/h 12.9 mph /  20.8 km/h 78 % 0.0 in /  0 mm
10:12 10.6 °F /  -11.9 °C 6.9 °F /  -13.9 °C 1011.4 in /  34246 hPa NE 4.8 mph /  7.7 km/h 16.1 mph /  25.9 km/h 78 % 0.0 in /  0 mm
10:17 10.5 °F /  -11.9 °C 6.8 °F /  -14 °C 1011.4 in /  34246 hPa NNW 9.7 mph /  15.6 km/h 16.1 mph /  25.9 km/h 78 % 0.0 in /  0 mm
10:22 10.4 °F /  -12 °C 6.9 °F /  -13.9 °C 1011.7 in /  34256.2 hPa NNE 8.0 mph /  12.9 km/h 16.1 mph /  25.9 km/h 79 % 0.0 in /  0 mm
10:32 10.3 °F /  -12.1 °C 6.8 °F /  -14 °C 1011.7 in /  34256.2 hPa NNW 3.2 mph /  5.1 km/h 14.5 mph /  23.3 km/h 79 % 0.0 in /  0 mm
10:37 10.3 °F /  -12.1 °C 6.8 °F /  -14 °C 1011.7 in /  34256.2 hPa North 8.0 mph /  12.9 km/h 12.9 mph /  20.8 km/h 79 % 0.0 in /  0 mm
10:42 10.4 °F /  -12 °C 7.1 °F /  -13.8 °C 1011.7 in /  34256.2 hPa North 6.4 mph /  10.3 km/h 12.9 mph /  20.8 km/h 80 % 0.0 in /  0 mm
10:52 10.4 °F /  -12 °C 7.1 °F /  -13.8 °C 1011.7 in /  34256.2 hPa ENE 4.8 mph /  7.7 km/h 12.9 mph /  20.8 km/h 80 % 0.0 in /  0 mm
10:57 10.7 °F /  -11.8 °C 7.4 °F /  -13.7 °C 1011.7 in /  34256.2 hPa North 6.4 mph /  10.3 km/h 16.1 mph /  25.9 km/h 80 % 0.0 in /  0 mm
11:06 10.9 °F /  -11.7 °C 7.4 °F /  -13.7 °C 1011.7 in /  34256.2 hPa NNW 1.6 mph /  2.6 km/h 16.1 mph /  25.9 km/h 79 % 0.0 in /  0 mm
11:12 10.6 °F /  -11.9 °C 6.7 °F /  -14.1 °C 1011.4 in /  34246 hPa North 11.3 mph /  18.2 km/h 12.9 mph /  20.8 km/h 77 % 0.0 in /  0 mm
11:17 10.4 °F /  -12 °C 6.9 °F /  -13.9 °C 1011.7 in /  34256.2 hPa NNE 9.7 mph /  15.6 km/h 22.5 mph /  36.2 km/h 79 % 0.0 in /  0 mm
11:22 10.3 °F /  -12.1 °C 6.8 °F /  -14 °C 1011.7 in /  34256.2 hPa NNE 14.5 mph /  23.3 km/h 22.5 mph /  36.2 km/h 79 % 0.0 in /  0 mm
11:27 10.2 °F /  -12.1 °C 6.9 °F /  -13.9 °C 1011.7 in /  34256.2 hPa North 12.9 mph /  20.8 km/h 22.5 mph /  36.2 km/h 80 % 0.0 in /  0 mm
11:32 10.0 °F /  -12.2 °C 6.9 °F /  -13.9 °C 1011.7 in /  34256.2 hPa NE 3.2 mph /  5.1 km/h 22.5 mph /  36.2 km/h 81 % 0.0 in /  0 mm
11:37 9.8 °F /  -12.3 °C 6.5 °F /  -14.2 °C 1011.7 in /  34256.2 hPa NE 1.6 mph /  2.6 km/h 19.3 mph /  31.1 km/h 80 % 0.0 in /  0 mm
11:42 9.6 °F /  -12.4 °C 6.5 °F /  -14.2 °C 1011.7 in /  34256.2 hPa North 8.0 mph /  12.9 km/h 19.3 mph /  31.1 km/h 81 % 0.0 in /  0 mm
11:47 9.6 °F /  -12.4 °C 6.7 °F /  -14.1 °C 1011.7 in /  34256.2 hPa NNE 9.7 mph /  15.6 km/h 19.3 mph /  31.1 km/h 82 % 0.0 in /  0 mm
11:52 9.6 °F /  -12.4 °C 6.7 °F /  -14.1 °C 1011.7 in /  34256.2 hPa NE 8.0 mph /  12.9 km/h 19.3 mph /  31.1 km/h 82 % 0.0 in /  0 mm
11:57 9.7 °F /  -12.4 °C 7.0 °F /  -13.9 °C 1011.7 in /  34256.2 hPa NW 6.4 mph /  10.3 km/h 19.3 mph /  31.1 km/h 83 % 0.0 in /  0 mm
12:02 9.6 °F /  -12.4 °C 6.7 °F /  -14.1 °C 1011.7 in /  34256.2 hPa NNE 11.3 mph /  18.2 km/h 19.3 mph /  31.1 km/h 82 % 0.0 in /  0 mm
12:07 9.6 °F /  -12.4 °C 6.7 °F /  -14.1 °C 1011.7 in /  34256.2 hPa NW 8.0 mph /  12.9 km/h 19.3 mph /  31.1 km/h 82 % 0.0 in /  0 mm
12:12 9.6 °F /  -12.4 °C 6.7 °F /  -14.1 °C 1011.7 in /  34256.2 hPa NNW 6.4 mph /  10.3 km/h 19.3 mph /  31.1 km/h 82 % 0.0 in /  0 mm
12:17 9.6 °F /  -12.4 °C 6.7 °F /  -14.1 °C 1011.7 in /  34256.2 hPa North 12.9 mph /  20.8 km/h 19.3 mph /  31.1 km/h 82 % 0.0 in /  0 mm
12:22 9.6 °F /  -12.4 °C 6.7 °F /  -14.1 °C 1011.7 in /  34256.2 hPa North 9.7 mph /  15.6 km/h 19.3 mph /  31.1 km/h 82 % 0.0 in /  0 mm
12:32 9.7 °F /  -12.4 °C 6.6 °F /  -14.1 °C 1011.4 in /  34246 hPa NNW 8.0 mph /  12.9 km/h 19.3 mph /  31.1 km/h 81 % 0.0 in /  0 mm
12:42 9.6 °F /  -12.4 °C 6.7 °F /  -14.1 °C 1011.4 in /  34246 hPa NNW 6.4 mph /  10.3 km/h 19.3 mph /  31.1 km/h 82 % 0.0 in /  0 mm
12:52 9.4 °F /  -12.6 °C 6.8 °F /  -14 °C 1011.4 in /  34246 hPa North 4.8 mph /  7.7 km/h 19.3 mph /  31.1 km/h 84 % 0.0 in /  0 mm
12:57 9.2 °F /  -12.7 °C 6.6 °F /  -14.1 °C 1011.4 in /  34246 hPa North 9.7 mph /  15.6 km/h 19.3 mph /  31.1 km/h 84 % 0.0 in /  0 mm
13:02 9.1 °F /  -12.7 °C 6.5 °F /  -14.2 °C 1011.4 in /  34246 hPa NNW 12.9 mph /  20.8 km/h 19.3 mph /  31.1 km/h 84 % 0.0 in /  0 mm
13:12 8.8 °F /  -12.9 °C 6.4 °F /  -14.2 °C 1011.4 in /  34246 hPa NNW 9.7 mph /  15.6 km/h 22.5 mph /  36.2 km/h 85 % 0.0 in /  0 mm
13:17 8.9 °F /  -12.8 °C 6.7 °F /  -14.1 °C 1011.4 in /  34246 hPa NNW 6.4 mph /  10.3 km/h 22.5 mph /  36.2 km/h 86 % 0.0 in /  0 mm
13:22 8.9 °F /  -12.8 °C 6.5 °F /  -14.2 °C 1011.4 in /  34246 hPa NW 3.2 mph /  5.1 km/h 19.3 mph /  31.1 km/h 85 % 0.0 in /  0 mm
13:27 8.9 °F /  -12.8 °C 6.5 °F /  -14.2 °C 1011.4 in /  34246 hPa NNE 14.5 mph /  23.3 km/h 22.5 mph /  36.2 km/h 85 % 0.0 in /  0 mm
13:32 8.8 °F /  -12.9 °C 6.4 °F /  -14.2 °C 1011.4 in /  34246 hPa NNW 17.7 mph /  28.5 km/h 22.5 mph /  36.2 km/h 85 % 0.0 in /  0 mm
13:37 8.5 °F /  -13.1 °C 6.1 °F /  -14.4 °C 1011.4 in /  34246 hPa North 19.3 mph /  31.1 km/h 24.1 mph /  38.8 km/h 85 % 0.0 in /  0 mm
13:42 8.2 °F /  -13.2 °C 5.8 °F /  -14.6 °C 1011.4 in /  34246 hPa North 16.1 mph /  25.9 km/h 24.1 mph /  38.8 km/h 85 % 0.0 in /  0 mm
13:47 8.1 °F /  -13.3 °C 5.7 °F /  -14.6 °C 1011.4 in /  34246 hPa NNW 12.9 mph /  20.8 km/h 25.7 mph /  41.4 km/h 85 % 0.0 in /  0 mm
13:52 7.9 °F /  -13.4 °C 5.5 °F /  -14.7 °C 1011.1 in /  34235.8 hPa NNW 16.1 mph /  25.9 km/h 25.7 mph /  41.4 km/h 85 % 0.0 in /  0 mm
13:57 7.7 °F /  -13.5 °C 5.2 °F /  -14.9 °C 1011.1 in /  34235.8 hPa NNW 20.9 mph /  33.6 km/h 27.4 mph /  44.1 km/h 84 % 0.3 in /  7.62 mm
14:02 7.7 °F /  -13.5 °C 5.2 °F /  -14.9 °C 1011.1 in /  34235.8 hPa NNW 8.0 mph /  12.9 km/h 27.4 mph /  44.1 km/h 84 % 0.3 in /  7.62 mm
14:12 7.4 °F /  -13.7 °C 4.9 °F /  -15.1 °C 1011.1 in /  34235.8 hPa Calm   27.4 mph /  44.1 km/h 84 % 0.3 in /  7.62 mm
14:17 7.4 °F /  -13.7 °C 4.9 °F /  -15.1 °C 1011.1 in /  34235.8 hPa NNE 12.9 mph /  20.8 km/h 25.7 mph /  41.4 km/h 84 % 0.3 in /  7.62 mm
14:22 7.3 °F /  -13.7 °C 4.8 °F /  -15.1 °C 1011.1 in /  34235.8 hPa NNW 9.7 mph /  15.6 km/h 25.7 mph /  41.4 km/h 84 % 0.3 in /  7.62 mm
14:32 7.1 °F /  -13.8 °C 4.4 °F /  -15.3 °C 1011.4 in /  34246 hPa NNE 11.3 mph /  18.2 km/h 25.7 mph /  41.4 km/h 83 % 0.3 in /  7.62 mm
14:37 7.0 °F /  -13.9 °C 4.5 °F /  -15.3 °C 1011.4 in /  34246 hPa NE 11.3 mph /  18.2 km/h 30.6 mph /  49.2 km/h 84 % 0.3 in /  7.62 mm
14:42 6.9 °F /  -13.9 °C 4.6 °F /  -15.2 °C 1011.1 in /  34235.8 hPa NE 16.1 mph /  25.9 km/h 30.6 mph /  49.2 km/h 85 % 0.3 in /  7.62 mm
14:47 6.8 °F /  -14 °C 4.5 °F /  -15.3 °C 1011.1 in /  34235.8 hPa NNW 11.3 mph /  18.2 km/h 30.6 mph /  49.2 km/h 85 % 0.3 in /  7.62 mm
14:52 6.7 °F /  -14.1 °C 4.4 °F /  -15.3 °C 1011.1 in /  34235.8 hPa NNE 19.3 mph /  31.1 km/h 25.7 mph /  41.4 km/h 85 % 0.3 in /  7.62 mm
14:57 6.7 °F /  -14.1 °C 4.5 °F /  -15.3 °C 1011.1 in /  34235.8 hPa NNW 11.3 mph /  18.2 km/h 20.9 mph /  33.6 km/h 86 % 0.0 in /  0 mm
15:02 6.7 °F /  -14.1 °C 4.7 °F /  -15.2 °C 1011.1 in /  34235.8 hPa NNW 14.5 mph /  23.3 km/h 20.9 mph /  33.6 km/h 87 % 0.0 in /  0 mm
15:12 6.7 °F /  -14.1 °C 4.9 °F /  -15.1 °C 1011.1 in /  34235.8 hPa North 14.5 mph /  23.3 km/h 20.9 mph /  33.6 km/h 88 % 0.0 in /  0 mm
15:17 6.7 °F /  -14.1 °C 4.9 °F /  -15.1 °C 1010.7 in /  34222.3 hPa NNW 4.8 mph /  7.7 km/h 20.9 mph /  33.6 km/h 88 % 0.3 in /  7.62 mm
15:22 6.7 °F /  -14.1 °C 4.9 °F /  -15.1 °C 1010.7 in /  34222.3 hPa NE 20.9 mph /  33.6 km/h 24.1 mph /  38.8 km/h 88 % 0.3 in /  7.62 mm
15:32 6.7 °F /  -14.1 °C 4.7 °F /  -15.2 °C 1010.7 in /  34222.3 hPa NW 20.9 mph /  33.6 km/h 30.6 mph /  49.2 km/h 87 % 0.3 in /  7.62 mm
15:42 6.6 °F /  -14.1 °C 4.6 °F /  -15.2 °C 1010.7 in /  34222.3 hPa North 8.0 mph /  12.9 km/h 29.0 mph /  46.7 km/h 87 % 0.5 in /  12.7 mm
15:47 6.6 °F /  -14.1 °C 4.6 °F /  -15.2 °C 1010.7 in /  34222.3 hPa NNE 3.2 mph /  5.1 km/h 25.7 mph /  41.4 km/h 87 % 0.5 in /  12.7 mm
15:52 6.4 °F /  -14.2 °C 4.2 °F /  -15.4 °C 1010.7 in /  34222.3 hPa North 27.4 mph /  44.1 km/h 27.4 mph /  44.1 km/h 86 % 0.5 in /  12.7 mm
15:57 6.3 °F /  -14.3 °C 4.3 °F /  -15.4 °C 1010.7 in /  34222.3 hPa NNE 16.1 mph /  25.9 km/h 30.6 mph /  49.2 km/h 87 % 0.5 in /  12.7 mm
16:02 6.3 °F /  -14.3 °C 4.5 °F /  -15.3 °C 1010.7 in /  34222.3 hPa NW 3.2 mph /  5.1 km/h 30.6 mph /  49.2 km/h 88 % 0.5 in /  12.7 mm
16:12 6.0 °F /  -14.4 °C 4.0 °F /  -15.6 °C 1010.7 in /  34222.3 hPa NNW 12.9 mph /  20.8 km/h 30.6 mph /  49.2 km/h 87 % 0.5 in /  12.7 mm
16:17 5.8 °F /  -14.6 °C 4.0 °F /  -15.6 °C 1010.7 in /  34222.3 hPa NNE 6.4 mph /  10.3 km/h 27.4 mph /  44.1 km/h 88 % 0.5 in /  12.7 mm
16:22 5.8 °F /  -14.6 °C 4.1 °F /  -15.5 °C 1010.7 in /  34222.3 hPa NE 16.1 mph /  25.9 km/h 27.4 mph /  44.1 km/h 89 % 0.5 in /  12.7 mm
16:32 5.6 °F /  -14.7 °C 3.8 °F /  -15.7 °C 1010.7 in /  34222.3 hPa NNW 11.3 mph /  18.2 km/h 24.1 mph /  38.8 km/h 88 % 0.5 in /  12.7 mm
16:37 5.6 °F /  -14.7 °C 3.9 °F /  -15.6 °C 1010.7 in /  34222.3 hPa North 12.9 mph /  20.8 km/h 33.8 mph /  54.4 km/h 89 % 0.3 in /  7.62 mm
16:42 5.6 °F /  -14.7 °C 3.9 °F /  -15.6 °C 1010.7 in /  34222.3 hPa NNE 3.2 mph /  5.1 km/h 33.8 mph /  54.4 km/h 89 % 0.3 in /  7.62 mm
16:52 5.5 °F /  -14.7 °C 4.0 °F /  -15.6 °C 1010.4 in /  34212.1 hPa North 19.3 mph /  31.1 km/h 22.5 mph /  36.2 km/h 90 % 0.3 in /  7.62 mm
16:57 5.5 °F /  -14.7 °C 4.0 °F /  -15.6 °C 1010.4 in /  34212.1 hPa NNE 6.4 mph /  10.3 km/h 25.7 mph /  41.4 km/h 90 % 0.5 in /  12.7 mm
17:02 5.4 °F /  -14.8 °C 3.9 °F /  -15.6 °C 1010.4 in /  34212.1 hPa NNE 4.8 mph /  7.7 km/h 25.7 mph /  41.4 km/h 90 % 0.5 in /  12.7 mm
17:07 5.3 °F /  -14.8 °C 3.8 °F /  -15.7 °C 1010.4 in /  34212.1 hPa NNE 16.1 mph /  25.9 km/h 25.7 mph /  41.4 km/h 90 % 0.3 in /  7.62 mm
17:12 5.3 °F /  -14.8 °C 3.8 °F /  -15.7 °C 1010.4 in /  34212.1 hPa NNW 11.3 mph /  18.2 km/h 25.7 mph /  41.4 km/h 90 % 0.3 in /  7.62 mm
17:22 5.3 °F /  -14.8 °C 4.0 °F /  -15.6 °C 1010.4 in /  34212.1 hPa NNE 9.7 mph /  15.6 km/h 25.7 mph /  41.4 km/h 91 % 0.3 in /  7.62 mm
17:32 5.2 °F /  -14.9 °C 3.7 °F /  -15.7 °C 1010.4 in /  34212.1 hPa NNW 8.0 mph /  12.9 km/h 25.7 mph /  41.4 km/h 90 % 0.3 in /  7.62 mm
17:37 5.2 °F /  -14.9 °C 3.7 °F /  -15.7 °C 1010.4 in /  34212.1 hPa NNW 6.4 mph /  10.3 km/h 22.5 mph /  36.2 km/h 90 % 0.5 in /  12.7 mm
17:42 5.1 °F /  -14.9 °C 3.6 °F /  -15.8 °C 1010.4 in /  34212.1 hPa North 4.8 mph /  7.7 km/h 22.5 mph /  36.2 km/h 90 % 0.5 in /  12.7 mm
17:47 5.1 °F /  -14.9 °C 3.8 °F /  -15.7 °C 1010.4 in /  34212.1 hPa North 12.9 mph /  20.8 km/h 20.9 mph /  33.6 km/h 91 % 0.5 in /  12.7 mm
17:52 5.1 °F /  -14.9 °C 3.8 °F /  -15.7 °C 1010.4 in /  34212.1 hPa NNE 8.0 mph /  12.9 km/h 19.3 mph /  31.1 km/h 91 % 0.5 in /  12.7 mm
17:57 5.1 °F /  -14.9 °C 3.8 °F /  -15.7 °C 1010.4 in /  34212.1 hPa NNE 8.0 mph /  12.9 km/h 22.5 mph /  36.2 km/h 91 % 0.8 in /  20.32 mm
18:02 5.1 °F /  -14.9 °C 3.9 °F /  -15.6 °C 1010.4 in /  34212.1 hPa North 6.4 mph /  10.3 km/h 22.5 mph /  36.2 km/h 92 % 0.8 in /  20.32 mm
18:12 5.2 °F /  -14.9 °C 4.0 °F /  -15.6 °C 1010.4 in /  34212.1 hPa ENE 6.4 mph /  10.3 km/h 22.5 mph /  36.2 km/h 92 % 0.8 in /  20.32 mm
18:17 5.1 °F /  -14.9 °C 3.9 °F /  -15.6 °C 1010.4 in /  34212.1 hPa North 9.7 mph /  15.6 km/h 17.7 mph /  28.5 km/h 92 % 1.0 in /  25.4 mm
18:22 4.9 °F /  -15.1 °C 3.6 °F /  -15.8 °C 1010.4 in /  34212.1 hPa NE 20.9 mph /  33.6 km/h 20.9 mph /  33.6 km/h 91 % 1.0 in /  25.4 mm
18:32 4.8 °F /  -15.1 °C 3.5 °F /  -15.8 °C 1010.4 in /  34212.1 hPa NE 19.3 mph /  31.1 km/h 25.7 mph /  41.4 km/h 91 % 1.3 in /  33.02 mm
18:37 4.8 °F /  -15.1 °C 3.5 °F /  -15.8 °C 1010.4 in /  34212.1 hPa ENE 6.4 mph /  10.3 km/h 25.7 mph /  41.4 km/h 91 % 1.0 in /  25.4 mm
18:42 4.8 °F /  -15.1 °C 3.5 °F /  -15.8 °C 1010.7 in /  34222.3 hPa NNE 8.0 mph /  12.9 km/h 25.7 mph /  41.4 km/h 91 % 1.0 in /  25.4 mm
18:47 4.7 °F /  -15.2 °C 3.4 °F /  -15.9 °C 1010.4 in /  34212.1 hPa NNE 9.7 mph /  15.6 km/h 25.7 mph /  41.4 km/h 91 % 1.0 in /  25.4 mm
18:52 4.7 °F /  -15.2 °C 3.4 °F /  -15.9 °C 1010.4 in /  34212.1 hPa NNW 12.9 mph /  20.8 km/h 25.7 mph /  41.4 km/h 91 % 1.0 in /  25.4 mm
18:57 4.7 °F /  -15.2 °C 3.4 °F /  -15.9 °C 1010.4 in /  34212.1 hPa NW 4.8 mph /  7.7 km/h 22.5 mph /  36.2 km/h 91 % 0.8 in /  20.32 mm
19:02 4.7 °F /  -15.2 °C 3.5 °F /  -15.8 °C 1010.4 in /  34212.1 hPa NNE 11.3 mph /  18.2 km/h 22.5 mph /  36.2 km/h 92 % 0.8 in /  20.32 mm
19:07 4.6 °F /  -15.2 °C 3.3 °F /  -15.9 °C 1010.4 in /  34212.1 hPa NNW 11.3 mph /  18.2 km/h 19.3 mph /  31.1 km/h 91 % 1.0 in /  25.4 mm
19:12 4.6 °F /  -15.2 °C 3.4 °F /  -15.9 °C 1010.7 in /  34222.3 hPa NNW 11.3 mph /  18.2 km/h 19.3 mph /  31.1 km/h 92 % 1.0 in /  25.4 mm
19:22 4.3 °F /  -15.4 °C 3.0 °F /  -16.1 °C 1010.7 in /  34222.3 hPa NNW 12.9 mph /  20.8 km/h 19.3 mph /  31.1 km/h 91 % 1.0 in /  25.4 mm
19:27 4.3 °F /  -15.4 °C 3.0 °F /  -16.1 °C 1010.7 in /  34222.3 hPa NE 9.7 mph /  15.6 km/h 27.4 mph /  44.1 km/h 91 % 1.0 in /  25.4 mm
19:32 4.2 °F /  -15.4 °C 2.9 °F /  -16.2 °C 1010.4 in /  34212.1 hPa NNW 9.7 mph /  15.6 km/h 27.4 mph /  44.1 km/h 91 % 1.0 in /  25.4 mm
19:37 4.1 °F /  -15.5 °C 2.8 °F /  -16.2 °C 1010.4 in /  34212.1 hPa NE 8.0 mph /  12.9 km/h 25.7 mph /  41.4 km/h 91 % 1.0 in /  25.4 mm
19:42 4.1 °F /  -15.5 °C 2.8 °F /  -16.2 °C 1010.4 in /  34212.1 hPa NNW 11.3 mph /  18.2 km/h 25.7 mph /  41.4 km/h 91 % 1.0 in /  25.4 mm
19:52 4.0 °F /  -15.6 °C 2.8 °F /  -16.2 °C 1010.7 in /  34222.3 hPa NE 12.9 mph /  20.8 km/h 24.1 mph /  38.8 km/h 92 % 1.3 in /  33.02 mm
19:57 3.8 °F /  -15.7 °C 2.5 °F /  -16.4 °C 1010.7 in /  34222.3 hPa ENE 8.0 mph /  12.9 km/h 29.0 mph /  46.7 km/h 91 % 1.5 in /  38.1 mm
20:02 3.7 °F /  -15.7 °C 2.4 °F /  -16.4 °C 1010.7 in /  34222.3 hPa NE 12.9 mph /  20.8 km/h 29.0 mph /  46.7 km/h 91 % 1.5 in /  38.1 mm
20:12 3.6 °F /  -15.8 °C 2.3 °F /  -16.5 °C 1010.7 in /  34222.3 hPa ENE 3.2 mph /  5.1 km/h 29.0 mph /  46.7 km/h 91 % 1.3 in /  33.02 mm
20:17 3.5 °F /  -15.8 °C 2.2 °F /  -16.6 °C 1010.7 in /  34222.3 hPa NNW 9.7 mph /  15.6 km/h 30.6 mph /  49.2 km/h 91 % 1.0 in /  25.4 mm
20:27 3.4 °F /  -15.9 °C 2.1 °F /  -16.6 °C 1010.7 in /  34222.3 hPa NE 4.8 mph /  7.7 km/h 24.1 mph /  38.8 km/h 91 % 1.0 in /  25.4 mm
20:32 3.4 °F /  -15.9 °C 2.2 °F /  -16.6 °C 1010.7 in /  34222.3 hPa NNW 11.3 mph /  18.2 km/h 24.1 mph /  38.8 km/h 92 % 1.0 in /  25.4 mm
20:42 3.3 °F /  -15.9 °C 2.1 °F /  -16.6 °C 1010.7 in /  34222.3 hPa NE 8.0 mph /  12.9 km/h 24.1 mph /  38.8 km/h 92 % 0.5 in /  12.7 mm
20:47 3.3 °F /  -15.9 °C 2.1 °F /  -16.6 °C 1010.7 in /  34222.3 hPa NNW 6.4 mph /  10.3 km/h 22.5 mph /  36.2 km/h 92 % 0.5 in /  12.7 mm
20:52 3.3 °F /  -15.9 °C 2.1 °F /  -16.6 °C 1010.7 in /  34222.3 hPa NE 4.8 mph /  7.7 km/h 22.5 mph /  36.2 km/h 92 % 0.5 in /  12.7 mm
20:57 3.2 °F /  -16 °C 2.0 °F /  -16.7 °C 1011.1 in /  34235.8 hPa NE 8.0 mph /  12.9 km/h 19.3 mph /  31.1 km/h 92 % 0.5 in /  12.7 mm
21:02 3.2 °F /  -16 °C 2.0 °F /  -16.7 °C 1011.1 in /  34235.8 hPa NE 4.8 mph /  7.7 km/h 19.3 mph /  31.1 km/h 92 % 0.5 in /  12.7 mm
21:12 3.2 °F /  -16 °C 2.2 °F /  -16.6 °C 1011.1 in /  34235.8 hPa NW 6.4 mph /  10.3 km/h 19.3 mph /  31.1 km/h 93 % 0.5 in /  12.7 mm
21:17 3.2 °F /  -16 °C 2.0 °F /  -16.7 °C 1011.1 in /  34235.8 hPa North 8.0 mph /  12.9 km/h 17.7 mph /  28.5 km/h 92 % 0.8 in /  20.32 mm
21:22 3.2 °F /  -16 °C 2.0 °F /  -16.7 °C 1011.1 in /  34235.8 hPa NE 8.0 mph /  12.9 km/h 19.3 mph /  31.1 km/h 92 % 0.8 in /  20.32 mm
21:32 3.2 °F /  -16 °C 2.0 °F /  -16.7 °C 1011.1 in /  34235.8 hPa NNE 6.4 mph /  10.3 km/h 19.3 mph /  31.1 km/h 92 % 0.5 in /  12.7 mm
21:37 3.2 °F /  -16 °C 2.2 °F /  -16.6 °C 1011.1 in /  34235.8 hPa NE 14.5 mph /  23.3 km/h 14.5 mph /  23.3 km/h 93 % 0.5 in /  12.7 mm
21:42 3.2 °F /  -16 °C 2.0 °F /  -16.7 °C 1011.4 in /  34246 hPa NNE 8.0 mph /  12.9 km/h 12.9 mph /  20.8 km/h 92 % 0.5 in /  12.7 mm
21:47 3.2 °F /  -16 °C 2.0 °F /  -16.7 °C 1011.1 in /  34235.8 hPa NNE 9.7 mph /  15.6 km/h 19.3 mph /  31.1 km/h 92 % 0.5 in /  12.7 mm
21:52 3.2 °F /  -16 °C 2.0 °F /  -16.7 °C 1011.4 in /  34246 hPa NE 4.8 mph /  7.7 km/h 19.3 mph /  31.1 km/h 92 % 0.5 in /  12.7 mm
22:02 3.1 °F /  -16.1 °C 2.1 °F /  -16.6 °C 1011.4 in /  34246 hPa NE 4.8 mph /  7.7 km/h 16.1 mph /  25.9 km/h 93 % 0.5 in /  12.7 mm
22:12 3.1 °F /  -16.1 °C 2.1 °F /  -16.6 °C 1011.4 in /  34246 hPa ENE 12.9 mph /  20.8 km/h 16.1 mph /  25.9 km/h 93 % 0.5 in /  12.7 mm
22:17 3.1 °F /  -16.1 °C 2.1 °F /  -16.6 °C 1011.4 in /  34246 hPa NE 6.4 mph /  10.3 km/h 16.1 mph /  25.9 km/h 93 % 0.3 in /  7.62 mm
22:22 3.1 °F /  -16.1 °C 2.1 °F /  -16.6 °C 1011.4 in /  34246 hPa NE 6.4 mph /  10.3 km/h 16.1 mph /  25.9 km/h 93 % 0.3 in /  7.62 mm
22:27 3.1 °F /  -16.1 °C 2.1 °F /  -16.6 °C 1011.1 in /  34235.8 hPa ENE 4.8 mph /  7.7 km/h 14.5 mph /  23.3 km/h 93 % 0.3 in /  7.62 mm
22:32 3.1 °F /  -16.1 °C 2.1 °F /  -16.6 °C 1011.1 in /  34235.8 hPa ENE 6.4 mph /  10.3 km/h 14.5 mph /  23.3 km/h 93 % 0.3 in /  7.62 mm
22:37 3.1 °F /  -16.1 °C 2.1 °F /  -16.6 °C 1011.1 in /  34235.8 hPa ENE 3.2 mph /  5.1 km/h 11.3 mph /  18.2 km/h 93 % 0.3 in /  7.62 mm
22:42 3.1 °F /  -16.1 °C 2.1 °F /  -16.6 °C 1011.1 in /  34235.8 hPa East 6.4 mph /  10.3 km/h 11.3 mph /  18.2 km/h 93 % 0.3 in /  7.62 mm
22:52 3.1 °F /  -16.1 °C 2.1 °F /  -16.6 °C 1011.7 in /  34256.2 hPa ENE 1.6 mph /  2.6 km/h 11.3 mph /  18.2 km/h 93 % 0.5 in /  12.7 mm
22:57 3.1 °F /  -16.1 °C 2.1 °F /  -16.6 °C 1011.4 in /  34246 hPa NE 1.6 mph /  2.6 km/h 9.7 mph /  15.6 km/h 93 % 0.3 in /  7.62 mm
23:07 3.0 °F /  -16.1 °C 2.0 °F /  -16.7 °C 1011.4 in /  34246 hPa NNE 4.8 mph /  7.7 km/h 6.4 mph /  10.3 km/h 93 % 0.3 in /  7.62 mm
23:12 3.0 °F /  -16.1 °C 2.0 °F /  -16.7 °C 1011.7 in /  34256.2 hPa Calm   6.4 mph /  10.3 km/h 93 % 0.3 in /  7.62 mm
23:17 3.0 °F /  -16.1 °C 2.0 °F /  -16.7 °C 1011.7 in /  34256.2 hPa Calm   6.4 mph /  10.3 km/h 93 % 0.3 in /  7.62 mm
23:22 3.0 °F /  -16.1 °C 2.0 °F /  -16.7 °C 1011.4 in /  34246 hPa North 1.6 mph /  2.6 km/h 4.8 mph /  7.7 km/h 93 % 0.3 in /  7.62 mm
23:27 3.1 °F /  -16.1 °C 2.1 °F /  -16.6 °C 1011.4 in /  34246 hPa North 3.2 mph /  5.1 km/h 3.2 mph /  5.1 km/h 93 % 0.3 in /  7.62 mm
23:32 3.0 °F /  -16.1 °C 2.0 °F /  -16.7 °C 1011.7 in /  34256.2 hPa Calm   3.2 mph /  5.1 km/h 93 % 0.3 in /  7.62 mm
23:37 3.1 °F /  -16.1 °C 2.1 °F /  -16.6 °C 1011.7 in /  34256.2 hPa Calm   3.2 mph /  5.1 km/h 93 % 0.3 in /  7.62 mm
23:42 3.0 °F /  -16.1 °C 2.0 °F /  -16.7 °C 1011.7 in /  34256.2 hPa Calm   3.2 mph /  5.1 km/h 93 % 0.3 in /  7.62 mm
23:52 3.0 °F /  -16.1 °C 2.0 °F /  -16.7 °C 1011.7 in /  34256.2 hPa Calm     93 % 0.0 in /  0 mm
23:57 3.0 °F /  -16.1 °C 2.0 °F /  -16.7 °C 1011.7 in /  34256.2 hPa Calm     93 % 0.0 in /  0 mm
Meteo18
Compliments of Weather Underground - 4 mb

Script developed by  Jim McMurry - jmcmurry@mwt.net Adapted for the template by  Wim van der Kuil - Leuven-Template.eu

You find our weather info also at:

European Weather Network

Weather Underground

Equipment we use:

Weather-station
Davis Vue

Weather-program
Meteobridge

Weather-server
Raspberry PI 2 B+

Provider
1 and 1

Davis Vue

Meteobridge

Raspberry PI 2 B+

1 and 1